Главная страница
METAR-TAF:

METAR-TAF

Аэропорты :

Москва, Россия

Остафьево

широта: 55-30-42N, долгота: 037-30-26E, высота над уровнем моря: 173 м

Текущие метеонаблюдения

Эта сводка был подготовлена 26 минут назад, в 21:00 UTC
Ветер 4 Узел от западный
Температура 2°C
Влажность 100%
Давление 1021 hPa
Видимость: 7000 м

METAR: UUMO 202100Z 28002MPS 7000 NSC 02/02 Q1021 R26/290050 NOSIG RMK QFE750/1000

Время: 00:26 (21:26 UTC)

Прогноз

Эта сводка был подготовлена 1 час и 33 минут назад, в 19:53 UTC
Прогноз действительный с 20-го 21 UTC до 21-го 06 UTC
Ветер 2 Узел переменных направлений
Видимость 10 км и более
Рассеянная облачность на высоте 2000 фута
временами
С 20-го 21 UTC до 21-го 06 UTC
Ветер 6 Узел от северный
Видимость: 2000 м
Отдельные облака на высоте 400 фута
небольшой дождь, дымка

TAF: UUMO 201953Z 2021/2106 VRB01MPS 9999 BKN020 TEMPO 2021/2106 35003MPS 2000 -RA BR SCT004

Метеонаблюдения и прогнозы для более 4000 аэропортов (сводки METAR и TAF).

Имеющиеся станции представлены на карте желтыми и красными точками.

Чтобы увидеть название станции, наведите на нее мышь.

Затем щелкните, чтобы увидеть метеонаблюдения и метеопрогнозы.

Управление картой: чтобы увеличить масштаб, щелкните зеленые кнопки с черным крестиком; чтобы уменьшить масштаб, щелкните зеленую кнопку с тире; для просмотра соседних карт щелкайте зеленые стрелки.


METAR-TAF: